»·PEaware :: N196EC KSNA-L52

N196EC :: KSNA-L52

FLIGHT INFORMATION

Flight Status: Arrived
Operator: Privately registered:
United States
More flights under this callsign
Pilot: Adrián R. (20842)
Aircraft: AERMACCHI WARRIOR
(F260)
More flights by this aircraft type
Origin: KSNA John Wayne-Orange Co
United States
Destination: L52 Oceano Co
United States
More flights between these airports :: More routes between these airports
Route: +SLI V23 LAX V299 VTU V25 RZS V12 GVO V27 ORCUT
File this flight plan on PilotEdge
Remarks:
Altitude:
(Current/Filed)
10,000ft
Speed:
(Current/Filed)
170kts
Departed: 02-Dec-18 11:44 AM
Arrived: 02-Dec-18 01:02 PM
Distance/Time
Traveled:
161nm/1:18
Distance/Time
To Go:
Arrived

Flight Plot

Page will automatically refresh every two minutes.

Flight plan parsing failed; only flown route is shown


Map Options




Map Legend


Flown Route
Filed Route
Departure Airport
Arrival Airport
Navaid (VOR, NDB)
Fix

Horizontal Profiles

Position Reports

Time Latitude Longitude Heading Altitude Ground
Speed
02-Dec-18 11:33 33.672724 -117.866360 236 59ft 0kts
02-Dec-18 11:34 33.672724 -117.866360 236 59ft 0kts
02-Dec-18 11:35 33.672724 -117.866360 236 59ft 0kts
02-Dec-18 11:36 33.672724 -117.866360 236 59ft 0kts
02-Dec-18 11:37 33.672695 -117.866811 295 59ft 0kts
02-Dec-18 11:38 33.672696 -117.866811 295 59ft 0kts
02-Dec-18 11:39 33.672696 -117.866811 295 59ft 0kts
02-Dec-18 11:40 33.672696 -117.866811 295 59ft 0kts
02-Dec-18 11:41 33.673163 -117.867144 27 59ft 8kts
02-Dec-18 11:42 33.676240 -117.865717 27 59ft 15kts
02-Dec-18 11:43 33.679928 -117.863491 333 59ft 4kts
02-Dec-18 11:44 33.679970 -117.863555 286 59ft 0kts
02-Dec-18 11:45 33.679970 -117.863555 286 59ft 0kts
02-Dec-18 11:46 33.679412 -117.864600 207 59ft 40kts
02-Dec-18 11:47 33.659840 -117.883265 230 1073ft 108kts
02-Dec-18 11:48 33.639011 -117.914205 231 2200ft 124kts
02-Dec-18 11:49 33.616211 -117.945853 230 3295ft 125kts
02-Dec-18 11:50 33.591938 -117.976628 230 4293ft 128kts
02-Dec-18 11:51 33.598938 -118.006451 319 5276ft 107kts
02-Dec-18 11:52 33.621260 -118.031673 316 6006ft 124kts
02-Dec-18 11:53 33.648198 -118.064719 314 6002ft 147kts
02-Dec-18 11:54 33.676645 -118.100787 313 5998ft 147kts
02-Dec-18 11:55 33.704375 -118.136356 313 6000ft 146kts
02-Dec-18 11:56 33.732033 -118.171964 312 6002ft 145kts
02-Dec-18 11:57 33.759474 -118.207350 312 6002ft 144kts
02-Dec-18 11:58 33.786783 -118.242599 312 6003ft 144kts
02-Dec-18 11:59 33.814066 -118.277847 313 6004ft 144kts
02-Dec-18 12:00 33.840133 -118.311567 312 6004ft 143kts
02-Dec-18 12:01 33.867058 -118.346400 313 6003ft 143kts
02-Dec-18 12:02 33.894310 -118.381726 312 6007ft 144kts
02-Dec-18 12:03 33.921549 -118.417061 314 6004ft 145kts
02-Dec-18 12:04 33.941105 -118.458970 291 6005ft 151kts
02-Dec-18 12:05 33.956239 -118.505878 296 6005ft 151kts
02-Dec-18 12:06 33.971408 -118.553604 296 5993ft 154kts
02-Dec-18 12:07 33.985528 -118.598915 296 6633ft 131kts
02-Dec-18 12:08 33.997441 -118.637256 298 7581ft 115kts
02-Dec-18 12:09 34.007701 -118.670594 298 8288ft 115kts
02-Dec-18 12:10 34.018764 -118.706373 299 8995ft 116kts
02-Dec-18 12:11 34.031520 -118.746566 297 9013ft 136kts
02-Dec-18 12:12 34.043139 -118.783572 297 9016ft 146kts
02-Dec-18 12:13 34.059607 -118.838016 295 9020ft 149kts
02-Dec-18 12:14 34.068248 -118.878799 293 9017ft 150kts
02-Dec-18 12:15 34.082604 -118.930679 296 9552ft 124kts
02-Dec-18 12:16 34.091001 -118.961912 296 10006ft 122kts
02-Dec-18 12:17 34.102201 -119.003520 295 10012ft 139kts
02-Dec-18 12:18 34.114495 -119.050216 296 10010ft 144kts
02-Dec-18 12:19 34.133117 -119.082204 308 10010ft 141kts
02-Dec-18 12:20 34.155047 -119.121608 308 10008ft 141kts
02-Dec-18 12:21 34.176157 -119.159644 308 10008ft 141kts
02-Dec-18 12:22 34.197919 -119.198930 308 10008ft 141kts
02-Dec-18 12:23 34.219626 -119.238172 308 10008ft 142kts
02-Dec-18 12:24 34.241592 -119.277923 308 10009ft 142kts
02-Dec-18 12:25 34.263482 -119.317573 308 10009ft 142kts
02-Dec-18 12:26 34.285329 -119.357182 308 10008ft 141kts
02-Dec-18 12:27 34.307153 -119.396790 307 10007ft 141kts
02-Dec-18 12:28 34.328777 -119.436056 308 10004ft 139kts
02-Dec-18 12:29 34.350838 -119.474610 305 10002ft 139kts
02-Dec-18 12:30 34.372032 -119.513501 304 9999ft 138kts
02-Dec-18 12:31 34.392964 -119.552433 303 9997ft 137kts
02-Dec-18 12:32 34.413501 -119.590811 303 9996ft 137kts
02-Dec-18 12:33 34.434184 -119.629504 303 9996ft 137kts
02-Dec-18 12:34 34.454342 -119.667728 302 10002ft 137kts
02-Dec-18 12:35 34.475092 -119.706907 302 10002ft 138kts
02-Dec-18 12:36 34.495227 -119.746522 301 10001ft 138kts
02-Dec-18 12:37 34.511781 -119.787725 273 10006ft 143kts
02-Dec-18 12:38 34.512868 -119.835570 280 10002ft 142kts
02-Dec-18 12:39 34.516498 -119.884492 280 9708ft 153kts
02-Dec-18 12:40 34.520307 -119.937013 279 9216ft 158kts
02-Dec-18 12:41 34.523981 -119.989348 280 9000ft 148kts
02-Dec-18 12:42 34.527743 -120.041430 279 8485ft 161kts
02-Dec-18 12:43 34.531246 -120.095790 278 8034ft 158kts
02-Dec-18 12:44 34.563123 -120.123385 334 8035ft 149kts
02-Dec-18 12:45 34.596643 -120.151705 320 8035ft 146kts
02-Dec-18 12:46 34.629087 -120.181364 320 8035ft 146kts
02-Dec-18 12:47 34.661261 -120.210981 320 8035ft 144kts
02-Dec-18 12:48 34.693535 -120.240784 320 7998ft 148kts
02-Dec-18 12:49 34.726275 -120.271051 321 7983ft 146kts
02-Dec-18 12:50 34.758417 -120.300834 322 7995ft 145kts
02-Dec-18 12:51 34.790470 -120.330515 323 8005ft 145kts
02-Dec-18 12:52 34.823415 -120.360994 324 7693ft 157kts
02-Dec-18 12:53 34.859071 -120.393943 325 7080ft 164kts
02-Dec-18 12:54 34.892939 -120.431713 314 6401ft 168kts
02-Dec-18 12:55 34.921884 -120.473134 319 5465ft 157kts
02-Dec-18 12:56 34.953068 -120.511114 319 4551ft 160kts
02-Dec-18 12:57 34.983008 -120.549953 304 4021ft 150kts
02-Dec-18 12:58 35.003711 -120.596156 303 3227ft 158kts
02-Dec-18 12:59 35.026179 -120.640164 316 2164ft 150kts
02-Dec-18 13:00 35.060891 -120.656831 357 1409ft 129kts
02-Dec-18 13:01 35.093111 -120.653438 32 1180ft 106kts
02-Dec-18 13:02 35.087824 -120.620965 119 982ft 94kts
02-Dec-18 13:03 35.088325 -120.603111 333 632ft 86kts
02-Dec-18 13:04 35.101932 -120.623094 302 17ft 56kts
02-Dec-18 13:05 35.103674 -120.624948 92 17ft 4kts
02-Dec-18 13:06 35.103436 -120.624817 213 17ft 0kts
02-Dec-18 13:07 35.103436 -120.624817 213 17ft 0kts
02-Dec-18 13:08 35.103436 -120.624817 213 17ft 0kts
02-Dec-18 13:09 35.103436 -120.624817 213 17ft 0kts
02-Dec-18 13:10 35.103436 -120.624817 213 17ft 0kts

Navigation Log

Ident Type
Flight plan parsing failed, navigation log unavailable